createdAt,value
2018-11-13T00:00:31.922Z,27.33
2018-11-13T00:03:01.391Z,22.70
2018-11-13T00:05:30.202Z,26.00
2018-11-13T00:07:58.741Z,29.67
2018-11-13T00:10:27.332Z,25.70
2018-11-13T00:12:55.901Z,27.57
2018-11-13T00:15:24.510Z,26.53
2018-11-13T00:17:53.081Z,26.83
2018-11-13T00:20:21.622Z,27.97
2018-11-13T00:22:50.186Z,32.00
2018-11-13T00:25:19.899Z,35.47
2018-11-13T00:27:48.584Z,24.43
2018-11-13T00:30:23.649Z,36.80
2018-11-13T00:32:52.346Z,34.00
2018-11-13T00:35:21.497Z,32.10
2018-11-13T00:37:50.604Z,31.30
2018-11-13T00:40:19.475Z,28.97
2018-11-13T00:42:48.621Z,29.03
2018-11-13T00:45:17.240Z,24.03
2018-11-13T00:47:45.762Z,30.63
2018-11-13T00:50:16.081Z,26.10
2018-11-13T00:52:46.303Z,26.13
2018-11-13T00:55:15.270Z,20.70
2018-11-13T00:57:44.086Z,21.93
2018-11-13T01:00:15.591Z,23.77
2018-11-13T01:02:44.535Z,20.93
2018-11-13T01:05:14.833Z,18.13
2018-11-13T01:07:44.507Z,19.70
2018-11-13T01:10:14.162Z,18.90
2018-11-13T01:12:43.884Z,18.97
2018-11-13T01:15:14.105Z,18.10
2018-11-13T01:17:44.316Z,18.20
2018-11-13T01:20:13.398Z,23.30
2018-11-13T01:22:41.995Z,18.97
2018-11-13T01:25:11.902Z,20.90
2018-11-13T01:27:41.042Z,20.77
2018-11-13T01:30:11.033Z,23.17
2018-11-13T01:32:40.757Z,18.47
2018-11-13T01:35:10.862Z,17.30
2018-11-13T01:37:39.455Z,20.77
2018-11-13T01:40:12.712Z,22.77
2018-11-13T01:42:41.744Z,19.03
2018-11-13T01:45:12.662Z,20.90
2018-11-13T01:47:41.404Z,18.30
2018-11-13T01:50:10.768Z,20.13
2018-11-13T01:52:39.351Z,19.77
2018-11-13T01:55:10.310Z,19.80
2018-11-13T01:57:39.078Z,21.80
2018-11-13T02:00:16.521Z,19.50
2018-11-13T02:02:47.118Z,17.93
2018-11-13T02:05:16.167Z,19.30
2018-11-13T02:07:44.749Z,19.23
2018-11-13T02:10:13.359Z,23.10
2018-11-13T02:12:41.915Z,18.37
2018-11-13T02:15:10.844Z,15.70
2018-11-13T02:17:39.512Z,17.70
2018-11-13T02:20:10.458Z,17.87
2018-11-13T02:22:39.442Z,17.27
2018-11-13T02:25:10.330Z,15.23
2018-11-13T02:27:38.950Z,13.23
2018-11-13T02:30:09.171Z,13.10
2018-11-13T02:32:37.710Z,14.33
2018-11-13T02:35:07.532Z,15.83
2018-11-13T02:37:36.125Z,12.20
2018-11-13T02:40:05.505Z,11.97
2018-11-13T02:42:34.893Z,14.17
2018-11-13T02:45:03.691Z,12.70
2018-11-13T02:47:32.963Z,13.60
2018-11-13T02:50:01.509Z,11.67
2018-11-13T02:52:30.053Z,12.53
2018-11-13T02:54:58.619Z,10.90
2018-11-13T02:57:27.171Z,10.87
2018-11-13T02:59:55.752Z,12.57
2018-11-13T03:02:24.294Z,13.73
2018-11-13T03:04:52.924Z,10.33
2018-11-13T03:07:21.620Z,10.47
2018-11-13T03:09:50.238Z,11.63
2018-11-13T03:12:18.820Z,9.80
2018-11-13T03:14:47.379Z,9.13
2018-11-13T03:17:16.014Z,10.60
2018-11-13T03:19:44.568Z,9.27
2018-11-13T03:22:13.127Z,9.77
2018-11-13T03:24:41.695Z,8.50
2018-11-13T03:27:10.247Z,9.60
2018-11-13T03:29:38.837Z,8.17
2018-11-13T03:32:07.416Z,7.67
2018-11-13T03:34:35.966Z,8.10
2018-11-13T03:37:04.844Z,8.73
2018-11-13T03:39:33.441Z,7.67
2018-11-13T03:42:02.114Z,8.90
2018-11-13T03:44:30.674Z,8.63
2018-11-13T03:46:59.215Z,10.27
2018-11-13T03:49:27.779Z,9.53
2018-11-13T03:51:56.310Z,6.93
2018-11-13T03:54:24.883Z,11.13
2018-11-13T03:56:53.428Z,6.40
2018-11-13T03:59:22.107Z,7.47
2018-11-13T04:01:50.697Z,6.63
2018-11-13T04:04:19.230Z,9.23
2018-11-13T04:06:47.785Z,5.70
2018-11-13T04:09:16.323Z,8.30
2018-11-13T04:11:44.882Z,6.47
2018-11-13T04:14:13.390Z,6.33
2018-11-13T04:16:41.933Z,5.00
2018-11-13T04:19:10.455Z,5.60
2018-11-13T04:21:39.011Z,6.73
2018-11-13T04:24:07.579Z,5.43
2018-11-13T04:26:36.134Z,6.50
2018-11-13T04:29:04.695Z,6.43
2018-11-13T04:31:33.234Z,6.00
2018-11-13T04:34:01.761Z,5.77
2018-11-13T04:36:30.392Z,5.67
2018-11-13T04:38:58.905Z,4.67
2018-11-13T04:41:27.446Z,6.27
2018-11-13T04:43:55.943Z,5.50
2018-11-13T04:46:24.471Z,6.20
2018-11-13T04:48:52.987Z,5.73
2018-11-13T04:51:21.550Z,7.70
2018-11-13T04:53:50.072Z,6.17
2018-11-13T04:56:18.622Z,5.83
2018-11-13T04:58:47.225Z,6.50
2018-11-13T05:01:15.793Z,5.93
2018-11-13T05:03:44.306Z,6.40
2018-11-13T05:06:12.943Z,5.53
2018-11-13T05:08:41.449Z,4.83
2018-11-13T05:13:49.234Z,6.07
2018-11-13T05:16:17.774Z,6.47
2018-11-13T05:18:46.291Z,6.40
2018-11-13T05:21:14.843Z,7.60
2018-11-13T05:23:43.365Z,5.30
2018-11-13T05:26:11.930Z,8.00
2018-11-13T05:28:40.600Z,6.97
2018-11-13T05:31:09.126Z,9.80
2018-11-13T05:33:37.730Z,11.30
2018-11-13T05:36:06.713Z,11.40
2018-11-13T05:38:35.230Z,11.50
2018-11-13T05:41:03.783Z,9.77
2018-11-13T05:43:32.314Z,14.50
2018-11-13T05:46:00.861Z,11.10
2018-11-13T05:48:29.660Z,8.60
2018-11-13T05:50:58.185Z,11.60
2018-11-13T05:53:26.730Z,10.53
2018-11-13T05:55:55.273Z,10.90
2018-11-13T05:58:24.549Z,14.20
2018-11-13T06:00:53.075Z,14.07
2018-11-13T06:03:21.618Z,17.43
2018-11-13T06:05:50.164Z,19.53
2018-11-13T06:08:19.459Z,21.33
2018-11-13T06:10:48.107Z,15.80
2018-11-13T06:13:16.846Z,10.80
2018-11-13T06:15:45.414Z,8.57
2018-11-13T06:18:14.033Z,10.23
2018-11-13T06:20:42.535Z,11.03
2018-11-13T06:23:11.175Z,9.27
2018-11-13T06:25:40.225Z,6.63
2018-11-13T06:28:08.888Z,8.23
2018-11-13T06:30:37.441Z,10.60
2018-11-13T06:33:06.540Z,12.83
2018-11-13T06:35:35.096Z,14.13
2018-11-13T06:38:03.668Z,9.17
2018-11-13T06:40:32.238Z,10.67
2018-11-13T06:43:00.890Z,10.43
2018-11-13T06:45:29.504Z,13.20
2018-11-13T06:47:58.078Z,11.20
2018-11-13T06:50:26.919Z,9.57
2018-11-13T06:52:55.493Z,10.50
2018-11-13T06:55:28.989Z,11.00
2018-11-13T06:57:57.729Z,9.23
2018-11-13T07:00:26.264Z,16.30
2018-11-13T07:02:54.833Z,13.47
2018-11-13T07:05:23.373Z,12.93
2018-11-13T07:07:51.980Z,13.00
2018-11-13T07:10:23.999Z,8.33
2018-11-13T07:12:53.377Z,11.63
2018-11-13T07:15:23.045Z,10.37
2018-11-13T07:17:54.025Z,10.03
2018-11-13T07:20:23.694Z,11.30
2018-11-13T07:22:52.237Z,14.50
2018-11-13T07:25:21.228Z,14.37
2018-11-13T07:27:49.843Z,9.17
2018-11-13T07:30:19.737Z,8.90
2018-11-13T07:32:48.310Z,11.83
2018-11-13T07:35:18.029Z,15.07
2018-11-13T07:37:53.206Z,12.13
2018-11-13T07:40:22.118Z,20.83
2018-11-13T07:42:50.657Z,18.53
2018-11-13T07:45:19.550Z,25.07
2018-11-13T07:47:48.682Z,13.93
2018-11-13T07:50:17.573Z,19.63
2018-11-13T07:52:46.363Z,12.53
2018-11-13T07:55:16.040Z,11.27
2018-11-13T07:57:44.749Z,13.73
2018-11-13T08:00:16.446Z,11.83
2018-11-13T08:02:46.623Z,12.57
2018-11-13T08:05:15.207Z,16.70
2018-11-13T08:07:43.732Z,9.47
2018-11-13T08:10:13.226Z,8.13
2018-11-13T08:12:41.866Z,9.03
2018-11-13T08:15:12.630Z,11.40
2018-11-13T08:17:41.602Z,13.60
2018-11-13T08:20:11.974Z,11.80
2018-11-13T08:22:41.021Z,13.93
2018-11-13T08:25:10.583Z,9.25
2018-11-13T08:27:40.405Z,9.03
2018-11-13T08:30:10.954Z,11.70
2018-11-13T08:32:39.538Z,11.30
2018-11-13T08:35:08.675Z,12.33
2018-11-13T08:37:37.316Z,7.70
2018-11-13T08:40:08.323Z,8.87
2018-11-13T08:42:36.894Z,12.20
2018-11-13T08:45:06.592Z,6.33
2018-11-13T08:47:35.187Z,9.60
2018-11-13T08:50:03.855Z,8.30
2018-11-13T08:52:32.392Z,8.60
2018-11-13T08:55:00.986Z,5.77
2018-11-13T08:57:29.534Z,9.53
2018-11-13T08:59:58.138Z,8.90
2018-11-13T09:02:26.686Z,7.10
2018-11-13T09:04:55.297Z,7.87
2018-11-13T09:07:23.847Z,5.40
2018-11-13T09:09:52.407Z,4.77
2018-11-13T09:12:21.110Z,8.33
2018-11-13T09:14:49.588Z,6.27
2018-11-13T09:17:18.110Z,5.80
2018-11-13T09:19:46.731Z,4.90
2018-11-13T09:22:15.226Z,13.63
2018-11-13T09:24:43.817Z,3.80
2018-11-13T09:27:12.811Z,6.60
2018-11-13T09:29:41.378Z,10.07
2018-11-13T09:32:09.903Z,10.90
2018-11-13T09:34:38.451Z,8.77
2018-11-13T09:37:07.063Z,11.10
2018-11-13T09:39:35.565Z,7.83
2018-11-13T09:42:04.336Z,5.30
2018-11-13T09:44:33.637Z,5.60
2018-11-13T09:47:02.222Z,7.40
2018-11-13T09:49:30.746Z,5.90
2018-11-13T09:51:59.389Z,5.90
2018-11-13T09:54:28.020Z,9.77
2018-11-13T09:56:56.553Z,12.97
2018-11-13T09:59:25.075Z,7.47
2018-11-13T10:01:54.111Z,7.47
2018-11-13T10:04:22.610Z,18.97
2018-11-13T10:06:50.753Z,9.23
2018-11-13T10:09:19.659Z,6.77
2018-11-13T10:11:48.266Z,10.50
2018-11-13T10:14:16.798Z,10.83
2018-11-13T10:16:45.375Z,6.50
2018-11-13T10:19:13.958Z,7.10
2018-11-13T10:21:42.551Z,7.43
2018-11-13T10:24:11.174Z,9.23
2018-11-13T10:26:39.847Z,24.30
2018-11-13T10:29:09.285Z,7.90
2018-11-13T10:31:37.877Z,6.20
2018-11-13T10:34:07.062Z,5.60
2018-11-13T10:36:35.610Z,8.20
2018-11-13T10:39:05.635Z,5.50
2018-11-13T10:41:34.269Z,4.83
2018-11-13T10:44:02.762Z,3.87
2018-11-13T10:46:31.402Z,3.70
2018-11-13T10:48:59.982Z,4.87
2018-11-13T10:51:28.578Z,5.80
2018-11-13T10:53:57.139Z,4.97
2018-11-13T10:56:26.002Z,3.70
2018-11-13T10:58:54.521Z,2.73
2018-11-13T11:01:28.438Z,3.50
2018-11-13T11:04:07.189Z,2.90
2018-11-13T11:06:35.790Z,7.50
2018-11-13T11:09:06.680Z,4.93
2018-11-13T11:11:35.265Z,2.67
2018-11-13T11:14:04.268Z,4.20
2018-11-13T11:16:32.516Z,2.30
2018-11-13T11:19:01.364Z,3.20
2018-11-13T11:21:29.770Z,3.27
2018-11-13T11:23:58.414Z,2.90
2018-11-13T11:26:27.006Z,3.60
2018-11-13T11:28:55.558Z,4.50
2018-11-13T11:31:24.103Z,3.40
2018-11-13T11:33:52.676Z,3.00
2018-11-13T11:36:21.254Z,3.83
2018-11-13T11:38:50.192Z,3.30
2018-11-13T11:41:18.671Z,3.07
2018-11-13T11:43:47.215Z,2.73
2018-11-13T11:46:15.773Z,2.67
2018-11-13T11:48:44.334Z,2.37
2018-11-13T11:51:12.917Z,4.30
2018-11-13T11:53:41.589Z,3.17
2018-11-13T11:56:10.117Z,4.40
2018-11-13T11:58:38.665Z,4.07
2018-11-13T12:01:07.234Z,2.20
2018-11-13T12:03:36.250Z,13.40
2018-11-13T12:06:04.801Z,7.70
2018-11-13T12:08:33.354Z,7.00
2018-11-13T12:11:03.281Z,2.57
2018-11-13T12:13:31.849Z,2.07
2018-11-13T12:16:00.355Z,3.07
2018-11-13T12:18:28.916Z,2.40
2018-11-13T12:20:57.466Z,2.10
2018-11-13T12:23:26.075Z,3.03
2018-11-13T12:25:54.700Z,4.33
2018-11-13T12:28:23.177Z,10.37
2018-11-13T12:30:51.710Z,4.40
2018-11-13T12:33:20.249Z,2.53
2018-11-13T12:35:48.786Z,2.33
2018-11-13T12:38:17.335Z,4.13
2018-11-13T12:40:45.954Z,2.70
2018-11-13T12:43:14.545Z,5.80
2018-11-13T12:45:43.118Z,3.17
2018-11-13T12:48:11.666Z,4.60
2018-11-13T12:50:45.467Z,2.93
2018-11-13T12:53:14.062Z,6.90
2018-11-13T12:55:42.672Z,1.90
2018-11-13T12:58:11.256Z,2.00
2018-11-13T13:00:39.772Z,9.00
2018-11-13T13:03:08.313Z,3.70
2018-11-13T13:05:36.836Z,3.07
2018-11-13T13:08:05.900Z,10.30
2018-11-13T13:10:34.409Z,4.83
2018-11-13T13:13:02.996Z,8.73
2018-11-13T13:15:31.878Z,2.40
2018-11-13T13:18:00.891Z,3.10
2018-11-13T13:20:29.422Z,4.03
2018-11-13T13:22:58.481Z,4.17
2018-11-13T13:25:27.018Z,2.67
2018-11-13T13:27:55.539Z,6.33
2018-11-13T13:30:25.282Z,2.70
2018-11-13T13:32:53.883Z,2.23
2018-11-13T13:35:59.437Z,2.73
2018-11-13T13:38:28.119Z,2.87
2018-11-13T13:40:57.999Z,2.30
2018-11-13T13:43:27.415Z,5.07
2018-11-13T13:45:55.954Z,4.40
2018-11-13T13:48:24.906Z,4.70
2018-11-13T13:50:53.774Z,3.90
2018-11-13T13:53:22.957Z,2.57
2018-11-13T13:55:51.791Z,4.17
2018-11-13T13:58:21.267Z,24.10
2018-11-13T14:00:50.345Z,16.63
2018-11-13T14:03:18.862Z,4.17
2018-11-13T14:05:47.807Z,4.47
2018-11-13T14:08:17.130Z,3.17
2018-11-13T14:10:45.741Z,2.67
2018-11-13T14:13:14.818Z,5.97
2018-11-13T14:15:43.513Z,2.03
2018-11-13T14:18:12.310Z,2.40
2018-11-13T14:20:40.874Z,4.10
2018-11-13T14:23:09.519Z,3.37
2018-11-13T14:25:38.082Z,4.90
2018-11-13T14:28:06.668Z,4.83
2018-11-13T14:30:36.554Z,3.27
2018-11-13T14:33:07.172Z,2.20
2018-11-13T14:35:35.857Z,2.50
2018-11-13T14:38:04.449Z,2.00
2018-11-13T14:40:34.662Z,8.77
2018-11-13T14:43:03.549Z,3.07
2018-11-13T14:45:32.374Z,3.13
2018-11-13T14:48:01.240Z,2.03
2018-11-13T14:50:31.378Z,3.00
2018-11-13T14:53:00.181Z,1.73
2018-11-13T14:55:30.401Z,2.80
2018-11-13T14:57:59.865Z,1.93
2018-11-13T15:00:29.716Z,2.30
2018-11-13T15:02:58.910Z,1.90
2018-11-13T15:05:28.217Z,1.83
2018-11-13T15:07:58.338Z,3.80
2018-11-13T15:10:33.402Z,2.00
2018-11-13T15:13:02.128Z,3.00
2018-11-13T15:15:33.994Z,2.80
2018-11-13T15:18:05.173Z,1.97
2018-11-13T15:20:36.001Z,1.97
2018-11-13T15:23:06.691Z,2.40
2018-11-13T15:25:36.416Z,2.70
2018-11-13T15:28:05.647Z,2.57
2018-11-13T15:30:35.787Z,2.30
2018-11-13T15:33:08.921Z,4.80
2018-11-13T15:35:37.522Z,3.00
2018-11-13T15:38:07.258Z,1.97
2018-11-13T15:40:36.145Z,2.07
2018-11-13T15:43:05.002Z,2.87
2018-11-13T15:45:33.638Z,4.13
2018-11-13T15:48:03.312Z,1.80
2018-11-13T15:50:33.241Z,4.50
2018-11-13T15:53:02.385Z,2.50
2018-11-13T15:55:30.959Z,2.10
2018-11-13T15:57:59.993Z,2.70
2018-11-13T16:00:31.575Z,6.83
2018-11-13T16:03:01.764Z,3.40
2018-11-13T16:05:38.979Z,2.13
2018-11-13T16:08:08.484Z,4.67
2018-11-13T16:10:37.043Z,4.50
2018-11-13T16:13:06.030Z,3.60
2018-11-13T16:15:34.732Z,2.17
2018-11-13T16:18:04.774Z,1.70
2018-11-13T16:20:33.372Z,1.97
2018-11-13T16:23:01.929Z,1.83
2018-11-13T16:25:30.500Z,2.90
2018-11-13T16:27:59.041Z,3.90
2018-11-13T16:30:29.508Z,2.20
2018-11-13T16:32:57.893Z,2.80
2018-11-13T16:35:27.423Z,3.97
2018-11-13T16:37:57.177Z,2.93
2018-11-13T16:40:27.036Z,1.90
2018-11-13T16:42:55.574Z,4.20
2018-11-13T16:45:24.934Z,5.20
2018-11-13T16:47:54.088Z,6.20
2018-11-13T16:50:24.857Z,3.70
2018-11-13T16:52:53.427Z,6.90
2018-11-13T16:55:27.278Z,6.00
2018-11-13T16:57:56.557Z,4.60
2018-11-13T17:00:25.520Z,3.90
2018-11-13T17:02:54.041Z,3.50
2018-11-13T17:05:23.499Z,4.13
2018-11-13T17:07:51.959Z,3.40
2018-11-13T17:10:22.854Z,4.20
2018-11-13T17:12:51.841Z,3.00
2018-11-13T17:15:21.893Z,3.20
2018-11-13T17:20:14.889Z,3.70
2018-11-13T17:22:43.898Z,3.07
2018-11-13T17:25:14.046Z,4.67
2018-11-13T17:27:47.517Z,3.67
2018-11-13T17:30:22.971Z,4.23
2018-11-13T17:32:55.656Z,3.70
2018-11-13T17:35:25.891Z,3.27
2018-11-13T17:37:55.305Z,5.50
2018-11-13T17:40:25.817Z,3.53
2018-11-13T17:42:55.495Z,7.63
2018-11-13T17:45:27.600Z,6.43
2018-11-13T17:47:56.179Z,7.50
2018-11-13T17:50:27.228Z,13.10
2018-11-13T17:52:55.801Z,13.10
2018-11-13T17:55:24.600Z,9.30
2018-11-13T17:57:54.692Z,13.00
2018-11-13T18:00:29.083Z,9.60
2018-11-13T18:02:57.700Z,13.43
2018-11-13T18:05:27.175Z,10.93
2018-11-13T18:07:56.810Z,7.77
2018-11-13T18:10:26.036Z,7.63
2018-11-13T18:12:54.617Z,5.93
2018-11-13T18:15:24.438Z,6.37
2018-11-13T18:17:53.093Z,8.43
2018-11-13T18:20:25.909Z,5.50
2018-11-13T18:22:54.453Z,6.60
2018-11-13T18:25:23.047Z,6.13
2018-11-13T18:27:53.250Z,7.10
2018-11-13T18:30:24.025Z,9.23
2018-11-13T18:32:53.214Z,6.40
2018-11-13T18:35:23.241Z,7.23
2018-11-13T18:37:52.637Z,14.13
2018-11-13T18:40:22.041Z,12.00
2018-11-13T18:42:51.553Z,8.30
2018-11-13T18:45:23.966Z,9.10
2018-11-13T18:47:52.503Z,7.40
2018-11-13T18:50:24.612Z,11.67
2018-11-13T18:52:54.274Z,10.03
2018-11-13T18:55:22.927Z,8.70
2018-11-13T18:57:52.466Z,12.60
2018-11-13T19:00:22.513Z,6.70
2018-11-13T19:02:51.068Z,9.60
2018-11-13T19:05:20.075Z,11.93
2018-11-13T19:07:48.779Z,9.60
2018-11-13T19:10:25.750Z,6.30
2018-11-13T19:12:55.799Z,7.13
2018-11-13T19:15:24.715Z,8.83
2018-11-13T19:17:53.943Z,7.10
2018-11-13T19:20:23.810Z,9.20
2018-11-13T19:22:52.297Z,8.17
2018-11-13T19:25:24.520Z,7.30
2018-11-13T19:27:53.790Z,7.27
2018-11-13T19:30:22.802Z,7.60
2018-11-13T19:32:51.366Z,7.73
2018-11-13T19:35:20.535Z,8.83
2018-11-13T19:37:49.255Z,7.50
2018-11-13T19:40:20.359Z,5.40
2018-11-13T19:42:49.687Z,7.10
2018-11-13T19:45:18.672Z,6.50
2018-11-13T19:47:47.251Z,8.27
2018-11-13T19:50:17.538Z,7.73
2018-11-13T19:52:46.101Z,8.10
2018-11-13T19:55:15.800Z,10.70
2018-11-13T19:57:45.109Z,8.23
2018-11-13T20:00:18.358Z,10.40
2018-11-13T20:02:47.719Z,8.00
2018-11-13T20:05:16.310Z,9.40
2018-11-13T20:07:45.073Z,11.87
2018-11-13T20:10:22.032Z,9.53
2018-11-13T20:12:51.357Z,7.87
2018-11-13T20:15:20.645Z,10.37
2018-11-13T20:17:49.202Z,8.90
2018-11-13T20:20:21.001Z,8.60
2018-11-13T20:22:50.305Z,8.80
2018-11-13T20:25:20.433Z,9.13
2018-11-13T20:27:49.003Z,8.03
2018-11-13T20:30:27.961Z,9.33
2018-11-13T20:32:56.530Z,10.17
2018-11-13T20:35:25.756Z,10.63
2018-11-13T20:37:55.016Z,12.17
2018-11-13T20:40:26.977Z,8.47
2018-11-13T20:42:56.923Z,11.03
2018-11-13T20:45:25.476Z,9.20
2018-11-13T20:47:54.195Z,6.93
2018-11-13T20:50:24.219Z,7.40
2018-11-13T20:52:52.827Z,8.93
2018-11-13T20:55:21.511Z,8.00
2018-11-13T20:57:50.102Z,7.80
2018-11-13T21:00:22.085Z,9.87
2018-11-13T21:02:50.915Z,9.83
2018-11-13T21:05:19.687Z,8.57
2018-11-13T21:07:48.316Z,9.27
2018-11-13T21:10:20.719Z,7.80
2018-11-13T21:12:50.168Z,6.90
2018-11-13T21:15:19.854Z,6.63
2018-11-13T21:17:48.560Z,11.33
2018-11-13T21:20:18.342Z,9.50
2018-11-13T21:22:47.054Z,8.80
2018-11-13T21:25:19.180Z,13.40
2018-11-13T21:27:47.563Z,8.70
2018-11-13T21:30:18.945Z,8.40
2018-11-13T21:32:48.276Z,10.63
2018-11-13T21:35:17.109Z,10.03
2018-11-13T21:37:47.065Z,14.13
2018-11-13T21:40:17.668Z,12.87
2018-11-13T21:42:47.010Z,11.20
2018-11-13T21:45:16.216Z,10.17
2018-11-13T21:47:44.978Z,10.00
2018-11-13T21:50:15.360Z,14.87
2018-11-13T21:52:45.295Z,9.63
2018-11-13T21:55:15.648Z,10.73
2018-11-13T21:57:44.470Z,10.07
2018-11-13T22:00:26.045Z,16.50
2018-11-13T22:02:58.423Z,9.83
2018-11-13T22:05:28.083Z,10.47
2018-11-13T22:07:56.710Z,14.00
2018-11-13T22:10:25.232Z,10.37
2018-11-13T22:12:54.138Z,9.63
2018-11-13T22:15:23.664Z,8.60
2018-11-13T22:17:52.326Z,9.00
2018-11-13T22:20:21.665Z,7.40
2018-11-13T22:22:51.690Z,7.40
2018-11-13T22:25:21.959Z,9.93
2018-11-13T22:27:51.703Z,11.83
2018-11-13T22:30:21.715Z,8.93
2018-11-13T22:32:50.508Z,7.80
2018-11-13T22:35:20.844Z,9.37
2018-11-13T22:37:49.528Z,7.73
2018-11-13T22:40:19.410Z,7.73
2018-11-13T22:42:48.426Z,8.97
2018-11-13T22:45:18.658Z,8.40
2018-11-13T22:47:47.228Z,9.20
2018-11-13T22:50:19.817Z,7.40
2018-11-13T22:52:48.713Z,8.57
2018-11-13T22:55:17.688Z,6.70
2018-11-13T22:57:47.222Z,8.50
2018-11-13T23:00:18.632Z,7.20
2018-11-13T23:02:48.887Z,7.77
2018-11-13T23:05:17.437Z,9.27
2018-11-13T23:07:45.981Z,8.10
2018-11-13T23:10:15.337Z,8.83
2018-11-13T23:12:44.455Z,8.20
2018-11-13T23:15:16.675Z,8.60
2018-11-13T23:17:45.510Z,8.67
2018-11-13T23:20:15.806Z,7.47
2018-11-13T23:22:44.357Z,7.97
2018-11-13T23:25:15.027Z,9.07
2018-11-13T23:27:44.594Z,6.27
2018-11-13T23:30:16.376Z,6.63
2018-11-13T23:32:45.305Z,5.40
2018-11-13T23:35:14.508Z,7.30
2018-11-13T23:37:44.319Z,6.27
2018-11-13T23:40:14.442Z,5.80
2018-11-13T23:42:43.326Z,8.93
2018-11-13T23:45:12.924Z,16.20
2018-11-13T23:47:41.931Z,7.10
2018-11-13T23:50:11.550Z,6.40
2018-11-13T23:52:40.447Z,6.63
2018-11-13T23:55:10.850Z,8.13
2018-11-13T23:57:39.953Z,5.83
